Brevik Bridge — VRHY7 — position and weather

sailwx.info

Track history (hours):
 
Tides and Currents Weather Stations Pressure Air Temp Water Temp Dewpoint Dewpoint Depression Visibility Wind Speed Wind Dir Waves Ship Positions

Brevik Bridge

Last reported at 2017-Jan-21 11:25 UTC. Time now 2017-Jan-24 21:18 UTC.
Position N 35°00' E 139°40'.

Length 268 m; draft 9.2 m.

Type: Ship (hazmat cat B). MMSI: 477866200.

Date/timePositionNaut miles runAvg speedWind from/ knotsBaromVisibWave heightAir tempDewpointWater temp
2017-Jan-21 11:25N 35°00' E 139°40'1214.1
2017-Jan-21 10:33N 35°12' E 139°46'1212.5
2017-Jan-21 09:34N 35°24' E 139°42'4 3.9
2017-Jan-21 08:31N 35°28' E 139°42'0 0.0
2017-Jan-21 07:31N 35°28' E 139°42'0 0.0
2017-Jan-21 06:31N 35°28' E 139°42'0 0.0
2017-Jan-21 05:31N 35°28' E 139°42'0 0.0
2017-Jan-21 04:31N 35°28' E 139°42'0 0.0
2017-Jan-21 03:31N 35°28' E 139°42'0 0.0
2017-Jan-21 02:31N 35°28' E 139°42'0 0.0
2017-Jan-21 01:31N 35°28' E 139°42'0 0.0
2017-Jan-21 00:31N 35°28' E 139°42'0 0.0
2017-Jan-20 23:31N 35°28' E 139°42'0 0.0
2017-Jan-20 22:31N 35°28' E 139°42'2 2.5
2017-Jan-20 21:33N 35°27' E 139°45'10 9.5
2017-Jan-20 20:33N 35°36' E 139°46'1 0.7
2017-Jan-20 19:31N 35°37' E 139°46'0 0.0
2017-Jan-20 18:31N 35°37' E 139°46'0 0.0
2017-Jan-20 17:31N 35°37' E 139°46'0 0.0
2017-Jan-20 16:31N 35°37' E 139°46'0 0.0
2017-Jan-20 15:31N 35°37' E 139°46'0 0.0
2017-Jan-20 14:31N 35°37' E 139°46'0 0.0
2017-Jan-20 13:31N 35°37' E 139°46'0 0.0
2017-Jan-20 12:31N 35°37' E 139°46'0 0.0
2017-Jan-20 11:31N 35°37' E 139°46'0 0.0
2017-Jan-20 10:31N 35°37' E 139°46'0 0.0
2017-Jan-20 09:31N 35°37' E 139°46'0 0.0
2017-Jan-20 08:31N 35°37' E 139°46'4 4.2
2017-Jan-20 07:33N 35°34' E 139°49'1212.2
2017-Jan-20 06:33N 35°22' E 139°45'1212.2
2017-Jan-20 05:33N 35°10' E 139°47'8 7.9
2017-Jan-20 04:33N 35°02' E 139°44'  
Track history (hours):
 
Tides and Currents Weather Stations Pressure Air Temp Water Temp Dewpoint Dewpoint Depression Visibility Wind Speed Wind Dir Waves Ship Positions

Brevik Bridge

Last reported at 2017-Jan-21 11:25 UTC. Time now 2017-Jan-24 21:18 UTC.
Position N 35°00' E 139°40'.

Length 268 m; draft 9.2 m.

Type: Ship (hazmat cat B). MMSI: 477866200.

Date/timePositionNaut miles runAvg speedWind from/ knotsBaromVisibWave heightAir tempDewpointWater temp
2017-Jan-21 11:25N 35°00' E 139°40'1214.1
2017-Jan-21 10:33N 35°12' E 139°46'1212.5
2017-Jan-21 09:34N 35°24' E 139°42'4 3.9
2017-Jan-21 08:31N 35°28' E 139°42'0 0.0
2017-Jan-21 07:31N 35°28' E 139°42'0 0.0
2017-Jan-21 06:31N 35°28' E 139°42'0 0.0
2017-Jan-21 05:31N 35°28' E 139°42'0 0.0
2017-Jan-21 04:31N 35°28' E 139°42'0 0.0
2017-Jan-21 03:31N 35°28' E 139°42'0 0.0
2017-Jan-21 02:31N 35°28' E 139°42'0 0.0
2017-Jan-21 01:31N 35°28' E 139°42'0 0.0
2017-Jan-21 00:31N 35°28' E 139°42'0 0.0
2017-Jan-20 23:31N 35°28' E 139°42'0 0.0
2017-Jan-20 22:31N 35°28' E 139°42'2 2.5
2017-Jan-20 21:33N 35°27' E 139°45'10 9.5
2017-Jan-20 20:33N 35°36' E 139°46'1 0.7
2017-Jan-20 19:31N 35°37' E 139°46'0 0.0
2017-Jan-20 18:31N 35°37' E 139°46'0 0.0
2017-Jan-20 17:31N 35°37' E 139°46'0 0.0
2017-Jan-20 16:31N 35°37' E 139°46'0 0.0
2017-Jan-20 15:31N 35°37' E 139°46'0 0.0
2017-Jan-20 14:31N 35°37' E 139°46'0 0.0
2017-Jan-20 13:31N 35°37' E 139°46'0 0.0
2017-Jan-20 12:31N 35°37' E 139°46'0 0.0
2017-Jan-20 11:31N 35°37' E 139°46'0 0.0
2017-Jan-20 10:31N 35°37' E 139°46'0 0.0
2017-Jan-20 09:31N 35°37' E 139°46'0 0.0
2017-Jan-20 08:31N 35°37' E 139°46'4 4.2
2017-Jan-20 07:33N 35°34' E 139°49'1212.2
2017-Jan-20 06:33N 35°22' E 139°45'1212.2
2017-Jan-20 05:33N 35°10' E 139°47'8 7.9
2017-Jan-20 04:33N 35°02' E 139°44'  

Dump ship's entire track history